createdAt,value
2022-11-15T00:00:52.456Z,18.50
2022-11-15T00:03:21.946Z,18.92
2022-11-15T00:05:49.131Z,16.80
2022-11-15T00:08:16.105Z,17.30
2022-11-15T00:10:43.484Z,17.88
2022-11-15T00:13:12.714Z,17.58
2022-11-15T00:15:40.789Z,17.38
2022-11-15T00:18:13.337Z,17.67
2022-11-15T00:20:40.441Z,16.80
2022-11-15T00:23:07.457Z,18.02
2022-11-15T00:28:01.702Z,17.75
2022-11-15T00:30:29.058Z,17.48
2022-11-15T00:32:56.253Z,17.63
2022-11-15T00:35:23.274Z,17.85
2022-11-15T00:40:17.004Z,16.77
2022-11-15T00:42:43.766Z,16.55
2022-11-15T00:45:11.200Z,15.40
2022-11-15T00:47:38.017Z,16.55
2022-11-15T00:50:05.670Z,15.93
2022-11-15T00:52:32.449Z,16.17
2022-11-15T00:54:59.234Z,16.80
2022-11-15T00:57:26.030Z,16.00
2022-11-15T00:59:52.842Z,15.38
2022-11-15T01:02:19.643Z,16.00
2022-11-15T01:04:46.623Z,14.57
2022-11-15T01:09:40.194Z,13.68
2022-11-15T01:12:07.006Z,14.55
2022-11-15T01:14:33.770Z,14.02
2022-11-15T01:17:00.610Z,15.10
2022-11-15T01:19:27.513Z,13.52
2022-11-15T01:21:54.341Z,13.40
2022-11-15T01:24:21.032Z,13.10
2022-11-15T01:26:47.853Z,13.90
2022-11-15T01:29:14.689Z,14.52
2022-11-15T01:31:41.549Z,14.70
2022-11-15T01:34:08.378Z,14.25
2022-11-15T01:36:35.184Z,14.30
2022-11-15T01:39:02.231Z,14.63
2022-11-15T01:44:40.960Z,13.02
2022-11-15T01:47:14.077Z,12.68
2022-11-15T01:50:04.893Z,13.98
2022-11-15T01:52:34.297Z,12.65
2022-11-15T01:55:16.766Z,13.05
2022-11-15T01:57:46.333Z,11.35
2022-11-15T02:00:13.833Z,12.10
2022-11-15T02:02:40.930Z,12.68
2022-11-15T02:05:08.244Z,13.63
2022-11-15T02:07:36.581Z,13.43
2022-11-15T02:10:09.586Z,11.85
2022-11-15T02:12:37.037Z,12.55
2022-11-15T02:15:06.060Z,12.40
2022-11-15T02:17:41.526Z,11.75
2022-11-15T02:20:31.672Z,11.32
2022-11-15T02:23:46.068Z,11.20
2022-11-15T02:26:34.142Z,11.77
2022-11-15T02:29:06.941Z,11.23
2022-11-15T02:31:52.277Z,11.93
2022-11-15T02:34:30.202Z,10.02
2022-11-15T02:37:02.881Z,9.40
2022-11-15T02:39:56.883Z,10.18
2022-11-15T02:42:48.411Z,9.45
2022-11-15T02:45:22.447Z,10.00
2022-11-15T02:47:52.938Z,8.90
2022-11-15T02:50:24.357Z,9.05
2022-11-15T02:52:51.896Z,9.93
2022-11-15T02:55:42.465Z,9.55
2022-11-15T02:58:24.031Z,9.18
2022-11-15T03:01:04.790Z,9.38
2022-11-15T03:03:56.225Z,8.90
2022-11-15T03:06:31.483Z,9.75
2022-11-15T03:09:10.337Z,9.80
2022-11-15T03:11:44.073Z,10.98
2022-11-15T03:14:25.249Z,10.38
2022-11-15T03:17:14.029Z,10.27
2022-11-15T03:19:43.688Z,12.13
2022-11-15T03:22:15.278Z,10.75
2022-11-15T03:24:44.418Z,10.75
2022-11-15T03:27:15.087Z,11.05
2022-11-15T03:29:47.590Z,10.65
2022-11-15T03:32:21.697Z,10.55
2022-11-15T03:35:02.498Z,10.90
2022-11-15T03:37:35.445Z,10.73
2022-11-15T03:40:04.268Z,11.32
2022-11-15T03:43:01.689Z,10.32
2022-11-15T03:45:40.582Z,11.13
2022-11-15T03:48:14.564Z,11.68
2022-11-15T03:50:43.423Z,11.32
2022-11-15T03:53:10.465Z,12.00
2022-11-15T03:55:37.349Z,11.52
2022-11-15T03:58:04.197Z,10.80
2022-11-15T04:00:31.106Z,10.93
2022-11-15T04:02:57.838Z,10.25
2022-11-15T04:05:25.069Z,10.05
2022-11-15T04:07:51.820Z,10.85
2022-11-15T04:12:48.502Z,9.15
2022-11-15T04:15:21.761Z,9.63
2022-11-15T04:17:50.680Z,9.57
2022-11-15T04:20:40.838Z,10.50
2022-11-15T04:23:35.823Z,10.52
2022-11-15T04:26:13.984Z,10.77
2022-11-15T04:29:00.686Z,11.20
2022-11-15T04:31:27.992Z,11.82
2022-11-15T04:33:55.353Z,11.48
2022-11-15T04:36:44.009Z,12.00
2022-11-15T04:39:10.864Z,11.40
2022-11-15T04:41:37.773Z,11.73
2022-11-15T04:44:04.542Z,13.00
2022-11-15T04:46:31.294Z,12.00
2022-11-15T04:48:59.177Z,11.95
2022-11-15T04:51:26.469Z,11.80
2022-11-15T04:56:20.604Z,11.15
2022-11-15T04:58:50.227Z,11.20
2022-11-15T05:01:17.612Z,10.80
2022-11-15T05:04:03.981Z,11.85
2022-11-15T05:06:31.049Z,12.13
2022-11-15T05:08:58.106Z,11.82
2022-11-15T05:11:25.141Z,10.98
2022-11-15T05:16:18.656Z,11.73
2022-11-15T05:18:45.601Z,12.10
2022-11-15T05:21:15.336Z,11.93
2022-11-15T05:23:42.622Z,12.07
2022-11-15T05:26:10.385Z,17.73
2022-11-15T05:28:38.117Z,11.98
2022-11-15T05:31:09.476Z,11.02
2022-11-15T05:33:38.784Z,10.88
2022-11-15T05:36:26.185Z,12.18
2022-11-15T05:38:52.933Z,11.40
2022-11-15T05:41:22.494Z,10.77
2022-11-15T05:43:50.591Z,10.30
2022-11-15T05:46:18.563Z,11.13
2022-11-15T05:48:49.868Z,10.55
2022-11-15T05:51:17.614Z,11.40
2022-11-15T05:53:45.507Z,10.95
2022-11-15T05:56:12.934Z,11.68
2022-11-15T05:58:39.647Z,11.50
2022-11-15T06:01:06.777Z,10.70
2022-11-15T06:06:00.596Z,10.77
2022-11-15T06:08:28.326Z,11.18
2022-11-15T06:10:55.120Z,11.43
2022-11-15T06:13:21.924Z,11.27
2022-11-15T06:15:48.892Z,10.98
2022-11-15T06:18:15.646Z,11.10
2022-11-15T06:20:42.492Z,12.00
2022-11-15T06:23:09.232Z,11.73
2022-11-15T06:25:35.945Z,11.55
2022-11-15T06:28:02.661Z,13.30
2022-11-15T06:30:29.458Z,14.63
2022-11-15T06:33:06.578Z,13.10
2022-11-15T06:35:35.119Z,14.30
2022-11-15T06:38:12.093Z,14.52
2022-11-15T06:40:40.226Z,14.90
2022-11-15T06:43:07.719Z,15.05
2022-11-15T06:45:34.476Z,16.00
2022-11-15T06:48:01.255Z,14.02
2022-11-15T06:50:28.055Z,14.80
2022-11-15T06:52:55.592Z,16.25
2022-11-15T06:55:22.390Z,17.02
2022-11-15T06:57:52.880Z,16.63
2022-11-15T07:00:22.207Z,17.15
2022-11-15T07:02:49.323Z,17.67
2022-11-15T07:07:43.094Z,15.27
2022-11-15T07:12:39.701Z,15.75
2022-11-15T07:15:07.151Z,15.40
2022-11-15T07:17:33.975Z,14.50
2022-11-15T07:20:00.821Z,15.75
2022-11-15T07:22:27.551Z,15.85
2022-11-15T07:24:54.832Z,14.27
2022-11-15T07:27:21.779Z,13.38
2022-11-15T07:29:50.082Z,12.52
2022-11-15T07:32:16.843Z,12.95
2022-11-15T07:34:43.634Z,14.50
2022-11-15T07:37:10.344Z,13.18
2022-11-15T07:39:37.094Z,12.52
2022-11-15T07:42:22.352Z,12.63
2022-11-15T07:44:49.174Z,11.75
2022-11-15T07:47:16.108Z,11.52
2022-11-15T07:49:42.804Z,10.85
2022-11-15T07:52:09.462Z,11.98
2022-11-15T07:54:36.255Z,12.38
2022-11-15T07:57:07.168Z,12.35
2022-11-15T07:59:35.958Z,12.02
2022-11-15T08:02:03.035Z,13.82
2022-11-15T08:04:29.868Z,14.43
2022-11-15T08:06:56.708Z,13.68
2022-11-15T08:09:23.564Z,13.10
2022-11-15T08:11:50.269Z,13.45
2022-11-15T08:14:17.020Z,13.52
2022-11-15T08:16:44.027Z,13.55
2022-11-15T08:21:38.334Z,14.43
2022-11-15T08:24:05.459Z,14.68
2022-11-15T08:26:32.215Z,13.32
2022-11-15T08:28:58.963Z,13.77
2022-11-15T08:31:25.737Z,13.65
2022-11-15T08:33:52.454Z,14.43
2022-11-15T08:36:19.313Z,14.63
2022-11-15T08:38:46.066Z,15.38
2022-11-15T08:41:20.895Z,14.73
2022-11-15T08:43:47.646Z,15.48
2022-11-15T08:46:15.443Z,15.38
2022-11-15T08:48:42.199Z,15.27
2022-11-15T08:51:08.997Z,15.95
2022-11-15T08:53:35.889Z,16.00
2022-11-15T08:56:03.316Z,16.40
2022-11-15T08:58:30.496Z,16.40
2022-11-15T09:00:57.533Z,16.67
2022-11-15T09:03:24.314Z,16.00
2022-11-15T09:05:56.694Z,15.77
2022-11-15T09:08:52.173Z,16.05
2022-11-15T09:11:11.167Z,15.93
2022-11-15T09:13:38.368Z,16.38
2022-11-15T09:16:05.447Z,15.85
2022-11-15T09:21:00.435Z,16.52
2022-11-15T09:23:29.083Z,17.30
2022-11-15T09:26:04.174Z,16.83
2022-11-15T09:28:31.977Z,16.55
2022-11-15T09:31:00.489Z,15.07
2022-11-15T09:33:28.442Z,14.85
2022-11-15T09:35:55.720Z,15.18
2022-11-15T09:38:22.556Z,13.10
2022-11-15T09:41:00.055Z,14.43
2022-11-15T09:43:43.909Z,12.88
2022-11-15T09:46:27.658Z,13.52
2022-11-15T09:49:00.168Z,13.90
2022-11-15T09:51:47.821Z,14.00
2022-11-15T09:54:51.689Z,13.13
2022-11-15T09:57:22.652Z,13.50
2022-11-15T10:00:45.843Z,13.38
2022-11-15T10:05:49.508Z,15.02
2022-11-15T10:08:29.789Z,13.95
2022-11-15T10:13:52.128Z,13.90
2022-11-15T10:16:52.819Z,14.55
2022-11-15T10:20:07.436Z,15.02
2022-11-15T10:22:37.325Z,14.50
2022-11-15T10:25:10.211Z,14.20
2022-11-15T10:27:37.431Z,13.60
2022-11-15T10:30:11.169Z,14.85
2022-11-15T10:32:37.987Z,14.63
2022-11-15T10:35:22.410Z,14.38
2022-11-15T10:37:49.711Z,15.13
2022-11-15T10:40:23.139Z,13.80
2022-11-15T10:45:33.903Z,14.38
2022-11-15T10:48:12.835Z,14.30
2022-11-15T10:50:41.125Z,14.60
2022-11-15T10:53:19.117Z,15.05
2022-11-15T10:55:49.624Z,14.85
2022-11-15T10:58:36.251Z,14.68
2022-11-15T11:01:21.317Z,14.80
2022-11-15T11:04:07.898Z,14.05
2022-11-15T11:06:56.163Z,15.25
2022-11-15T11:09:37.390Z,16.08
2022-11-15T11:12:06.801Z,17.30
2022-11-15T11:14:38.168Z,15.15
2022-11-15T11:17:13.899Z,15.88
2022-11-15T11:19:59.190Z,15.77
2022-11-15T11:22:36.167Z,14.50
2022-11-15T11:25:15.922Z,14.82
2022-11-15T11:30:30.658Z,14.30
2022-11-15T11:33:22.991Z,13.45
2022-11-15T11:38:51.365Z,12.70
2022-11-15T11:42:03.076Z,12.55
2022-11-15T11:45:12.289Z,11.98
2022-11-15T11:47:43.184Z,11.85
2022-11-15T11:50:23.949Z,11.63
2022-11-15T11:53:05.789Z,13.02
2022-11-15T11:55:54.583Z,12.32
2022-11-15T11:58:35.220Z,12.77
2022-11-15T12:01:32.579Z,12.68
2022-11-15T12:04:15.460Z,13.00
2022-11-15T12:07:04.648Z,12.43
2022-11-15T12:09:44.860Z,12.90
2022-11-15T12:12:42.290Z,12.25
2022-11-15T12:15:41.948Z,12.13
2022-11-15T12:18:13.735Z,12.95
2022-11-15T12:20:50.758Z,12.18
2022-11-15T12:23:23.487Z,14.63
2022-11-15T12:26:07.156Z,13.48
2022-11-15T12:29:04.556Z,13.57
2022-11-15T12:31:35.746Z,14.00
2022-11-15T12:34:24.902Z,13.73
2022-11-15T12:36:52.527Z,14.80
2022-11-15T12:39:19.961Z,14.55
2022-11-15T12:41:55.910Z,15.25
2022-11-15T12:44:31.599Z,15.25
2022-11-15T12:46:58.257Z,14.30
2022-11-15T12:49:24.949Z,14.60
2022-11-15T12:51:53.135Z,14.40
2022-11-15T12:54:22.669Z,14.63
2022-11-15T12:57:04.250Z,13.50
2022-11-15T12:59:54.123Z,14.30
2022-11-15T13:02:33.093Z,14.07
2022-11-15T13:05:20.805Z,14.18
2022-11-15T13:07:47.483Z,14.57
2022-11-15T13:10:14.206Z,14.73
2022-11-15T13:12:46.748Z,14.55
2022-11-15T13:15:13.526Z,14.23
2022-11-15T13:17:54.248Z,14.02
2022-11-15T13:20:39.250Z,15.95
2022-11-15T13:23:05.930Z,15.75
2022-11-15T13:25:54.756Z,14.52
2022-11-15T13:28:40.623Z,14.63
2022-11-15T13:33:46.485Z,14.55
2022-11-15T13:36:20.883Z,14.57
2022-11-15T13:39:02.413Z,15.52
2022-11-15T13:41:35.253Z,16.67
2022-11-15T13:44:04.426Z,15.88
2022-11-15T13:46:33.890Z,16.58
2022-11-15T13:49:13.619Z,15.98
2022-11-15T13:51:43.972Z,17.13
2022-11-15T13:54:13.947Z,15.68
2022-11-15T13:57:03.380Z,15.48
2022-11-15T13:59:31.602Z,15.38
2022-11-15T14:02:03.450Z,15.77
2022-11-15T14:04:34.632Z,23.67
2022-11-15T14:07:02.971Z,13.85
2022-11-15T14:09:41.344Z,15.35
2022-11-15T14:12:34.327Z,14.48
2022-11-15T14:15:20.833Z,15.32
2022-11-15T14:17:50.193Z,14.75
2022-11-15T14:20:26.122Z,15.25
2022-11-15T14:23:01.482Z,15.07
2022-11-15T14:25:30.648Z,14.52
2022-11-15T14:28:34.367Z,13.60
2022-11-15T14:31:02.061Z,14.00
2022-11-15T14:33:33.661Z,12.70
2022-11-15T14:36:06.935Z,14.50
2022-11-15T14:38:34.338Z,13.48
2022-11-15T14:41:01.332Z,14.18
2022-11-15T14:45:54.843Z,12.32
2022-11-15T14:50:48.361Z,11.93
2022-11-15T14:53:17.319Z,11.25
2022-11-15T14:55:44.547Z,12.00
2022-11-15T14:58:11.609Z,11.82
2022-11-15T15:00:41.006Z,12.15
2022-11-15T15:03:08.786Z,11.13
2022-11-15T15:05:36.672Z,11.57
2022-11-15T15:08:04.544Z,11.55
2022-11-15T15:10:42.440Z,11.98
2022-11-15T15:13:21.151Z,11.80
2022-11-15T15:15:49.231Z,11.23
2022-11-15T15:18:16.565Z,11.15
2022-11-15T15:20:46.444Z,11.10
2022-11-15T15:23:21.404Z,11.25
2022-11-15T15:25:50.038Z,11.50
2022-11-15T15:28:17.273Z,11.63
2022-11-15T15:30:44.649Z,12.23
2022-11-15T15:33:11.538Z,11.98
2022-11-15T15:38:05.472Z,11.70
2022-11-15T15:40:34.212Z,12.05
2022-11-15T15:43:01.264Z,12.25
2022-11-15T15:45:29.235Z,12.60
2022-11-15T15:47:56.325Z,12.27
2022-11-15T15:50:28.610Z,12.75
2022-11-15T15:53:00.642Z,12.45
2022-11-15T15:55:28.137Z,12.00
2022-11-15T15:57:55.314Z,12.43
2022-11-15T16:00:24.589Z,12.65
2022-11-15T16:02:52.105Z,12.80
2022-11-15T16:05:19.200Z,12.70
2022-11-15T16:07:47.353Z,12.32
2022-11-15T16:10:26.078Z,12.95
2022-11-15T16:12:54.247Z,12.32
2022-11-15T16:15:22.129Z,12.95
2022-11-15T16:17:53.030Z,11.88
2022-11-15T16:20:43.624Z,12.30
2022-11-15T16:23:12.166Z,13.38
2022-11-15T16:25:54.125Z,12.10
2022-11-15T16:28:22.112Z,13.43
2022-11-15T16:30:53.914Z,13.43
2022-11-15T16:33:23.780Z,13.15
2022-11-15T16:35:50.755Z,13.10
2022-11-15T16:38:18.329Z,13.32
2022-11-15T16:40:45.557Z,12.32
2022-11-15T16:43:12.359Z,13.32
2022-11-15T16:45:39.507Z,14.18
2022-11-15T16:48:07.058Z,14.90
2022-11-15T16:50:41.027Z,14.15
2022-11-15T16:53:07.954Z,14.57
2022-11-15T16:55:34.919Z,15.13
2022-11-15T16:58:02.412Z,14.32
2022-11-15T17:00:29.324Z,16.08
2022-11-15T17:02:56.251Z,15.10
2022-11-15T17:07:56.996Z,14.75
2022-11-15T17:10:25.409Z,14.73
2022-11-15T17:12:53.229Z,15.13
2022-11-15T17:15:20.058Z,15.90
2022-11-15T17:20:19.519Z,15.10
2022-11-15T17:22:47.337Z,16.77
2022-11-15T17:25:15.007Z,18.35
2022-11-15T17:27:41.975Z,16.83
2022-11-15T17:30:10.499Z,17.95
2022-11-15T17:32:37.608Z,17.83
2022-11-15T17:35:12.019Z,17.23
2022-11-15T17:37:42.007Z,16.33
2022-11-15T17:40:09.450Z,15.80
2022-11-15T17:42:36.261Z,17.27
2022-11-15T17:47:37.564Z,15.93
2022-11-15T17:50:05.064Z,17.67
2022-11-15T17:52:31.834Z,17.08
2022-11-15T17:57:25.317Z,17.08
2022-11-15T17:59:52.220Z,17.63
2022-11-15T18:04:46.289Z,18.27
2022-11-15T18:07:14.173Z,18.58
2022-11-15T18:09:43.810Z,18.10
2022-11-15T18:12:12.184Z,18.63
2022-11-15T18:14:39.288Z,19.83
2022-11-15T18:17:06.489Z,19.63
2022-11-15T18:19:33.643Z,19.10
2022-11-15T18:22:01.619Z,19.05
2022-11-15T18:24:29.553Z,19.00
2022-11-15T18:26:57.026Z,19.38
2022-11-15T18:29:24.765Z,19.75
2022-11-15T18:31:55.497Z,19.42
2022-11-15T18:34:24.218Z,19.67
2022-11-15T18:36:52.532Z,19.73
2022-11-15T18:39:19.938Z,19.85
2022-11-15T18:41:47.555Z,18.60
2022-11-15T18:44:14.956Z,20.05
2022-11-15T18:46:42.475Z,19.30
2022-11-15T18:49:10.023Z,19.98
2022-11-15T18:51:37.982Z,20.70
2022-11-15T18:54:04.828Z,20.42
2022-11-15T18:59:01.925Z,20.00
2022-11-15T19:01:33.844Z,19.33
2022-11-15T19:04:11.797Z,18.42
2022-11-15T19:06:43.636Z,18.75
2022-11-15T19:09:15.209Z,19.27
2022-11-15T19:11:43.690Z,20.23
2022-11-15T19:14:12.462Z,19.45
2022-11-15T19:16:41.666Z,19.05
2022-11-15T19:19:13.191Z,20.35
2022-11-15T19:21:39.996Z,20.42
2022-11-15T19:24:07.121Z,20.02
2022-11-15T19:26:36.849Z,18.38
2022-11-15T19:29:05.085Z,18.85
2022-11-15T19:31:32.343Z,17.75
2022-11-15T19:34:01.146Z,19.60
2022-11-15T19:36:34.426Z,19.42
2022-11-15T19:41:32.112Z,17.92
2022-11-15T19:46:26.911Z,18.17
2022-11-15T19:48:54.054Z,19.38
2022-11-15T19:51:25.587Z,19.98
2022-11-15T19:53:58.060Z,19.25
2022-11-15T19:56:25.005Z,20.35
2022-11-15T20:01:28.499Z,18.75
2022-11-15T20:03:59.407Z,20.45
2022-11-15T20:06:46.398Z,19.58
2022-11-15T20:09:15.557Z,20.75
2022-11-15T20:11:42.748Z,20.60
2022-11-15T20:14:11.568Z,20.30
2022-11-15T20:16:38.693Z,21.55
2022-11-15T20:19:05.485Z,20.88
2022-11-15T20:21:32.240Z,19.67
2022-11-15T20:23:59.022Z,19.42
2022-11-15T20:26:25.980Z,20.15
2022-11-15T20:31:19.563Z,18.55
2022-11-15T20:33:46.462Z,17.88
2022-11-15T20:36:15.798Z,19.45
2022-11-15T20:38:43.647Z,19.27
2022-11-15T20:41:13.936Z,17.75
2022-11-15T20:43:44.316Z,17.60
2022-11-15T20:46:12.483Z,17.77
2022-11-15T20:48:39.734Z,18.10
2022-11-15T20:51:15.422Z,16.90
2022-11-15T20:53:43.529Z,16.23
2022-11-15T20:56:16.869Z,16.42
2022-11-15T20:58:45.687Z,16.33
2022-11-15T21:01:15.070Z,15.85
2022-11-15T21:03:42.285Z,15.52
2022-11-15T21:06:09.551Z,15.63
2022-11-15T21:08:54.852Z,14.57
2022-11-15T21:11:40.318Z,13.63
2022-11-15T21:14:09.469Z,13.10
2022-11-15T21:16:37.158Z,13.57
2022-11-15T21:19:03.958Z,13.43
2022-11-15T21:23:57.764Z,12.60
2022-11-15T21:26:26.818Z,12.60
2022-11-15T21:31:20.379Z,11.88
2022-11-15T21:33:47.059Z,12.23
2022-11-15T21:36:14.075Z,12.18
2022-11-15T21:38:41.003Z,12.65
2022-11-15T21:43:34.508Z,11.43
2022-11-15T21:46:04.177Z,11.60
2022-11-15T21:48:32.896Z,12.50
2022-11-15T21:51:05.345Z,11.45
2022-11-15T21:53:32.291Z,11.70
2022-11-15T21:56:00.619Z,11.52
2022-11-15T21:58:27.833Z,11.68
2022-11-15T22:01:14.152Z,12.45
2022-11-15T22:03:41.491Z,11.77
2022-11-15T22:06:11.740Z,11.68
2022-11-15T22:08:41.223Z,11.60
2022-11-15T22:13:34.895Z,10.90
2022-11-15T22:18:28.867Z,11.65
2022-11-15T22:21:03.819Z,11.98
2022-11-15T22:23:32.070Z,11.80
2022-11-15T22:25:58.995Z,12.38
2022-11-15T22:30:53.991Z,11.82
2022-11-15T22:33:22.584Z,12.00
2022-11-15T22:35:49.878Z,12.48
2022-11-15T22:38:17.075Z,12.05
2022-11-15T22:40:44.035Z,11.85
2022-11-15T22:45:46.321Z,11.93
2022-11-15T22:48:13.064Z,11.60
2022-11-15T22:50:39.815Z,11.98
2022-11-15T22:53:06.518Z,12.52
2022-11-15T22:55:33.209Z,12.00
2022-11-15T22:57:59.972Z,12.10
2022-11-15T23:00:26.710Z,11.73
2022-11-15T23:05:21.499Z,11.43
2022-11-15T23:10:33.603Z,11.25
2022-11-15T23:13:16.887Z,11.70
2022-11-15T23:16:07.965Z,11.00
2022-11-15T23:18:38.840Z,11.63
2022-11-15T23:21:13.798Z,11.63
2022-11-15T23:23:40.734Z,11.05
2022-11-15T23:28:35.596Z,10.55
2022-11-15T23:31:25.590Z,10.77
2022-11-15T23:33:58.388Z,11.15
2022-11-15T23:36:29.381Z,11.82
2022-11-15T23:38:56.630Z,11.85
2022-11-15T23:41:25.066Z,10.85
2022-11-15T23:43:52.362Z,10.63
2022-11-15T23:46:19.155Z,10.73
2022-11-15T23:51:15.191Z,10.40
2022-11-15T23:53:42.392Z,10.48
2022-11-15T23:56:14.625Z,10.27
2022-11-15T23:58:42.422Z,10.18
